createdAt,value
2017-09-21T00:02:16.035Z,33.30
2017-09-21T00:04:51.385Z,33.07
2017-09-21T00:07:25.649Z,33.33
2017-09-21T00:10:00.707Z,34.73
2017-09-21T00:12:35.819Z,34.40
2017-09-21T00:15:10.544Z,32.77
2017-09-21T00:17:45.434Z,32.00
2017-09-21T00:20:20.211Z,33.30
2017-09-21T00:22:55.110Z,33.20
2017-09-21T00:25:29.830Z,35.60
2017-09-21T00:28:05.635Z,33.50
2017-09-21T00:30:40.257Z,34.57
2017-09-21T00:33:15.041Z,32.80
2017-09-21T00:35:49.843Z,34.20
2017-09-21T00:38:24.831Z,33.40
2017-09-21T00:40:59.669Z,34.20
2017-09-21T00:43:34.791Z,34.20
2017-09-21T00:46:10.686Z,35.30
2017-09-21T00:48:45.548Z,34.50
2017-09-21T00:51:20.216Z,33.20
2017-09-21T00:53:54.975Z,30.07
2017-09-21T00:56:30.000Z,32.80
2017-09-21T00:59:04.618Z,32.37
2017-09-21T01:01:39.268Z,35.00
2017-09-21T01:04:13.983Z,35.60
2017-09-21T01:06:48.708Z,34.00
2017-09-21T01:09:23.567Z,34.40
2017-09-21T01:11:58.142Z,32.97
2017-09-21T01:14:33.321Z,32.80
2017-09-21T01:17:08.179Z,33.23
2017-09-21T01:19:42.808Z,31.50
2017-09-21T01:22:17.360Z,32.97
2017-09-21T01:24:52.123Z,33.50
2017-09-21T01:27:26.861Z,33.93
2017-09-21T01:30:02.330Z,32.60
2017-09-21T01:32:36.867Z,32.00
2017-09-21T01:35:11.644Z,29.87
2017-09-21T01:37:45.935Z,32.70
2017-09-21T01:40:20.789Z,30.90
2017-09-21T01:42:55.364Z,30.80
2017-09-21T01:45:30.371Z,32.80
2017-09-21T01:48:04.980Z,31.57
2017-09-21T01:50:39.441Z,31.03
2017-09-21T01:53:13.306Z,31.80
2017-09-21T01:55:47.763Z,33.40
2017-09-21T01:58:22.546Z,31.70
2017-09-21T02:00:57.456Z,35.60
2017-09-21T02:03:32.743Z,35.80
2017-09-21T02:06:07.676Z,36.47
2017-09-21T02:08:42.691Z,35.53
2017-09-21T02:11:17.895Z,34.83
2017-09-21T02:13:52.345Z,35.30
2017-09-21T02:16:27.643Z,34.43
2017-09-21T02:19:02.450Z,35.07
2017-09-21T02:21:36.815Z,35.23
2017-09-21T02:24:11.810Z,40.23
2017-09-21T02:26:47.285Z,38.00
2017-09-21T02:29:22.267Z,37.77
2017-09-21T02:31:57.188Z,38.37
2017-09-21T02:34:31.748Z,36.40
2017-09-21T02:37:06.508Z,36.53
2017-09-21T02:39:41.102Z,35.63
2017-09-21T02:42:16.136Z,38.07
2017-09-21T02:44:51.736Z,36.27
2017-09-21T02:47:26.699Z,38.43
2017-09-21T02:50:01.236Z,37.80
2017-09-21T02:52:36.150Z,38.23
2017-09-21T02:55:11.010Z,36.30
2017-09-21T02:57:45.702Z,39.13
2017-09-21T03:00:21.308Z,37.80
2017-09-21T03:02:56.054Z,37.20
2017-09-21T03:05:30.667Z,36.57
2017-09-21T03:08:05.368Z,35.63
2017-09-21T03:10:39.990Z,37.40
2017-09-21T03:13:14.856Z,34.40
2017-09-21T03:15:49.480Z,34.80
2017-09-21T03:18:24.407Z,36.33
2017-09-21T03:20:59.154Z,35.13
2017-09-21T03:23:33.947Z,36.87
2017-09-21T03:26:08.872Z,38.80
2017-09-21T03:28:43.494Z,36.20
2017-09-21T03:31:18.112Z,35.13
2017-09-21T03:33:52.943Z,36.07
2017-09-21T03:36:27.841Z,35.83
2017-09-21T03:39:02.525Z,36.07
2017-09-21T03:41:37.330Z,35.47
2017-09-21T03:44:12.037Z,37.50
2017-09-21T03:46:47.051Z,34.70
2017-09-21T03:49:21.872Z,35.27
2017-09-21T03:51:56.486Z,35.70
2017-09-21T03:54:31.307Z,33.63
2017-09-21T03:57:06.126Z,36.57
2017-09-21T03:59:40.811Z,34.97
2017-09-21T04:02:15.216Z,38.23
2017-09-21T04:04:50.616Z,34.90
2017-09-21T04:07:25.396Z,34.17
2017-09-21T04:10:00.239Z,34.57
2017-09-21T04:12:34.947Z,35.30
2017-09-21T04:15:09.907Z,34.47
2017-09-21T04:17:44.806Z,35.27
2017-09-21T04:20:19.414Z,35.70
2017-09-21T04:22:54.150Z,34.73
2017-09-21T04:25:28.816Z,35.43
2017-09-21T04:28:03.619Z,34.70
2017-09-21T04:30:38.729Z,36.37
2017-09-21T04:33:13.380Z,32.97
2017-09-21T04:35:48.231Z,34.83
2017-09-21T04:38:22.963Z,33.03
2017-09-21T04:40:57.742Z,33.63
2017-09-21T04:43:32.567Z,33.00
2017-09-21T04:46:07.204Z,33.97
2017-09-21T04:48:42.091Z,34.40
2017-09-21T04:51:16.709Z,33.83
2017-09-21T04:53:51.750Z,32.80
2017-09-21T04:56:26.350Z,30.43
2017-09-21T04:59:00.773Z,30.20
2017-09-21T05:01:35.771Z,30.37
2017-09-21T05:04:10.467Z,32.67
2017-09-21T05:06:45.298Z,33.10
2017-09-21T05:09:19.763Z,31.90
2017-09-21T05:11:54.608Z,32.40
2017-09-21T05:14:29.319Z,33.57
2017-09-21T05:17:04.031Z,32.50
2017-09-21T05:19:39.776Z,30.70
2017-09-21T05:22:14.668Z,33.17
2017-09-21T05:24:49.290Z,30.13
2017-09-21T05:27:23.918Z,30.80
2017-09-21T05:29:58.622Z,29.90
2017-09-21T05:32:33.457Z,31.17
2017-09-21T05:35:08.195Z,32.60
2017-09-21T05:37:43.315Z,30.43
2017-09-21T05:40:18.020Z,31.47
2017-09-21T05:42:52.804Z,31.30
2017-09-21T05:45:28.066Z,31.30
2017-09-21T05:48:02.632Z,31.30
2017-09-21T05:50:37.555Z,28.50
2017-09-21T05:53:12.301Z,30.77
2017-09-21T05:55:47.059Z,29.30
2017-09-21T05:58:21.842Z,27.47
2017-09-21T06:00:56.706Z,30.57
2017-09-21T06:03:31.469Z,31.20
2017-09-21T06:06:06.270Z,32.63
2017-09-21T06:08:41.887Z,30.17
2017-09-21T06:11:17.557Z,30.57
2017-09-21T06:13:52.411Z,30.10
2017-09-21T06:16:27.335Z,28.57
2017-09-21T06:19:02.144Z,29.33
2017-09-21T06:21:36.957Z,28.93
2017-09-21T06:24:11.642Z,30.07
2017-09-21T06:26:47.297Z,29.63
2017-09-21T06:29:22.069Z,28.80
2017-09-21T06:31:57.428Z,29.87
2017-09-21T06:34:32.281Z,29.40
2017-09-21T06:37:07.031Z,28.60
2017-09-21T06:39:41.818Z,31.03
2017-09-21T06:42:16.763Z,29.40
2017-09-21T06:44:51.497Z,30.20
2017-09-21T06:47:26.302Z,31.23
2017-09-21T06:50:00.926Z,28.40
2017-09-21T06:52:35.447Z,29.00
2017-09-21T06:55:09.976Z,29.70
2017-09-21T06:57:45.095Z,29.10
2017-09-21T07:00:19.704Z,30.77
2017-09-21T07:02:54.658Z,30.67
2017-09-21T07:05:29.507Z,27.93
2017-09-21T07:08:04.304Z,28.77
2017-09-21T07:10:39.347Z,29.23
2017-09-21T07:13:14.099Z,29.03
2017-09-21T07:15:48.996Z,27.90
2017-09-21T07:18:23.924Z,27.97
2017-09-21T07:20:58.682Z,26.63
2017-09-21T07:23:33.710Z,28.00
2017-09-21T07:26:08.502Z,27.30
2017-09-21T07:28:43.211Z,24.27
2017-09-21T07:31:18.167Z,24.50
2017-09-21T07:33:52.676Z,22.20
2017-09-21T07:36:27.459Z,23.00
2017-09-21T07:39:02.379Z,22.70
2017-09-21T07:41:37.055Z,22.73
2017-09-21T07:44:12.011Z,21.10
2017-09-21T07:46:46.963Z,23.00
2017-09-21T07:49:21.823Z,22.93
2017-09-21T07:51:56.239Z,22.20
2017-09-21T07:54:31.131Z,21.80
2017-09-21T07:57:05.720Z,19.50
2017-09-21T07:59:40.599Z,19.50
2017-09-21T08:02:15.410Z,18.23
2017-09-21T08:04:50.111Z,18.60
2017-09-21T08:07:24.830Z,17.43
2017-09-21T08:09:59.747Z,19.90
2017-09-21T08:12:34.346Z,19.10
2017-09-21T08:15:09.096Z,17.10
2017-09-21T08:17:44.138Z,17.40
2017-09-21T08:20:18.851Z,17.83
2017-09-21T08:22:53.712Z,18.50
2017-09-21T08:25:28.406Z,16.03
2017-09-21T08:28:03.067Z,15.53
2017-09-21T08:30:37.912Z,15.80
2017-09-21T08:33:12.702Z,15.37
2017-09-21T08:35:47.312Z,14.47
2017-09-21T08:38:22.104Z,13.73
2017-09-21T08:40:56.933Z,15.03
2017-09-21T08:43:32.267Z,14.30
2017-09-21T08:46:07.040Z,17.53
2017-09-21T08:48:42.007Z,14.80
2017-09-21T08:51:16.727Z,13.77
2017-09-21T08:53:51.420Z,12.47
2017-09-21T08:56:26.204Z,13.97
2017-09-21T08:59:01.182Z,11.57
2017-09-21T09:01:35.809Z,12.40
2017-09-21T09:04:10.872Z,14.20
2017-09-21T09:06:45.918Z,14.93
2017-09-21T09:09:21.227Z,12.17
2017-09-21T09:11:55.948Z,12.10
2017-09-21T09:14:31.049Z,13.23
2017-09-21T09:17:05.960Z,11.87
2017-09-21T09:19:40.919Z,12.00
2017-09-21T09:22:15.876Z,10.43
2017-09-21T09:24:50.643Z,9.37
2017-09-21T09:27:25.671Z,13.20
2017-09-21T09:30:00.620Z,14.70
2017-09-21T09:32:35.594Z,11.83
2017-09-21T09:35:10.390Z,11.47
2017-09-21T09:37:45.465Z,11.33
2017-09-21T09:40:20.375Z,9.80
2017-09-21T09:42:55.215Z,11.10
2017-09-21T09:45:30.063Z,9.77
2017-09-21T09:48:04.816Z,9.43
2017-09-21T09:50:39.535Z,8.47
2017-09-21T09:53:14.223Z,9.93
2017-09-21T09:55:49.121Z,8.87
2017-09-21T09:58:24.050Z,8.87
2017-09-21T10:00:59.071Z,8.20
2017-09-21T10:03:33.415Z,9.20
2017-09-21T10:06:08.318Z,7.93
2017-09-21T10:08:43.235Z,8.80
2017-09-21T10:11:18.811Z,8.00
2017-09-21T10:13:53.714Z,7.60
2017-09-21T10:16:28.603Z,7.60
2017-09-21T10:19:03.283Z,7.27
2017-09-21T10:21:37.641Z,7.70
2017-09-21T10:24:12.844Z,8.00
2017-09-21T10:26:47.522Z,8.43
2017-09-21T10:29:22.197Z,8.97
2017-09-21T10:31:57.029Z,9.17
2017-09-21T10:34:31.821Z,7.73
2017-09-21T10:37:07.314Z,7.93
2017-09-21T10:39:42.345Z,6.93
2017-09-21T10:42:17.304Z,7.80
2017-09-21T10:44:52.615Z,7.60
2017-09-21T10:47:27.254Z,7.00
2017-09-21T10:50:03.159Z,7.00
2017-09-21T10:52:37.971Z,8.30
2017-09-21T10:55:12.755Z,7.30
2017-09-21T10:57:47.674Z,7.77
2017-09-21T11:00:22.413Z,7.63
2017-09-21T11:02:57.027Z,7.40
2017-09-21T11:05:31.547Z,8.03
2017-09-21T11:08:06.307Z,8.93
2017-09-21T11:10:41.002Z,9.03
2017-09-21T11:13:15.894Z,8.63
2017-09-21T11:15:50.392Z,8.93
2017-09-21T11:18:25.263Z,6.53
2017-09-21T11:20:59.946Z,7.20
2017-09-21T11:23:34.743Z,8.13
2017-09-21T11:26:09.400Z,7.60
2017-09-21T11:28:43.951Z,9.93
2017-09-21T11:31:18.755Z,7.93
2017-09-21T11:33:53.759Z,9.07
2017-09-21T11:36:28.391Z,8.20
2017-09-21T11:39:02.902Z,9.33
2017-09-21T11:41:38.722Z,8.27
2017-09-21T11:44:13.418Z,9.10
2017-09-21T11:46:48.156Z,9.73
2017-09-21T11:49:23.161Z,10.70
2017-09-21T11:51:57.871Z,9.60
2017-09-21T11:54:32.493Z,10.90
2017-09-21T11:57:07.603Z,12.00
2017-09-21T11:59:42.239Z,12.33
2017-09-21T12:02:17.051Z,11.70
2017-09-21T12:04:51.679Z,11.00
2017-09-21T12:07:26.488Z,11.00
2017-09-21T12:10:01.123Z,10.87
2017-09-21T12:12:35.647Z,13.03
2017-09-21T12:15:10.652Z,10.80
2017-09-21T12:17:45.300Z,9.37
2017-09-21T12:20:20.486Z,10.00
2017-09-21T12:22:55.167Z,11.70
2017-09-21T12:25:29.855Z,9.73
2017-09-21T12:28:04.656Z,9.80
2017-09-21T12:30:39.016Z,11.33
2017-09-21T12:33:13.919Z,10.73
2017-09-21T12:35:48.927Z,13.13
2017-09-21T12:38:23.834Z,13.30
2017-09-21T12:40:58.567Z,11.83
2017-09-21T12:43:33.262Z,11.60
2017-09-21T12:46:08.667Z,11.70
2017-09-21T12:48:43.904Z,9.93
2017-09-21T12:51:18.627Z,11.03
2017-09-21T12:53:53.267Z,13.90
2017-09-21T12:56:28.404Z,9.30
2017-09-21T12:59:03.519Z,12.03
2017-09-21T13:01:38.450Z,12.33
2017-09-21T13:04:14.314Z,11.77
2017-09-21T13:06:50.296Z,11.70
2017-09-21T13:09:25.288Z,11.03
2017-09-21T13:12:00.212Z,11.17
2017-09-21T13:14:35.992Z,10.80
2017-09-21T13:17:10.629Z,11.80
2017-09-21T13:19:45.523Z,11.50
2017-09-21T13:22:20.352Z,12.00
2017-09-21T13:24:55.031Z,12.43
2017-09-21T13:27:29.855Z,13.33
2017-09-21T13:30:04.887Z,10.40
2017-09-21T13:32:39.739Z,12.77
2017-09-21T13:35:14.396Z,10.80
2017-09-21T13:37:51.083Z,10.50
2017-09-21T13:40:25.518Z,9.83
2017-09-21T13:43:00.143Z,9.40
2017-09-21T13:45:35.204Z,9.80
2017-09-21T13:48:09.911Z,10.20
2017-09-21T13:50:44.629Z,9.50
2017-09-21T13:53:19.341Z,9.07
2017-09-21T13:55:54.047Z,9.23
2017-09-21T13:58:28.666Z,9.93
2017-09-21T14:01:03.531Z,9.43
2017-09-21T14:03:38.051Z,8.73
2017-09-21T14:06:12.847Z,9.43
2017-09-21T14:08:47.648Z,9.57
2017-09-21T14:11:22.357Z,8.30
2017-09-21T14:13:57.117Z,8.93
2017-09-21T14:16:31.693Z,8.40
2017-09-21T14:19:06.731Z,10.03
2017-09-21T14:21:41.341Z,9.40
2017-09-21T14:24:16.078Z,9.83
2017-09-21T14:26:50.966Z,9.60
2017-09-21T14:29:25.648Z,7.87
2017-09-21T14:32:01.370Z,9.53
2017-09-21T14:34:37.207Z,8.17
2017-09-21T14:37:12.027Z,9.93
2017-09-21T14:39:46.891Z,9.70
2017-09-21T14:42:21.687Z,7.83
2017-09-21T14:44:56.478Z,8.63
2017-09-21T14:47:31.161Z,8.50
2017-09-21T14:50:06.060Z,7.90
2017-09-21T14:52:40.700Z,7.17
2017-09-21T14:55:15.591Z,7.20
2017-09-21T14:57:50.491Z,7.67
2017-09-21T15:00:25.196Z,8.10
2017-09-21T15:02:59.837Z,8.70
2017-09-21T15:05:34.432Z,8.63
2017-09-21T15:08:09.303Z,8.97
2017-09-21T15:10:44.016Z,9.60
2017-09-21T15:13:18.890Z,8.17
2017-09-21T15:15:54.896Z,9.10
2017-09-21T15:18:29.591Z,9.37
2017-09-21T15:21:04.269Z,9.13
2017-09-21T15:23:39.319Z,8.87
2017-09-21T15:26:13.819Z,9.97
2017-09-21T15:28:49.007Z,9.33
2017-09-21T15:31:23.748Z,9.17
2017-09-21T15:33:58.391Z,9.20
2017-09-21T15:36:33.002Z,7.30
2017-09-21T15:39:07.643Z,8.00
2017-09-21T15:41:42.330Z,8.80
2017-09-21T15:44:17.127Z,7.93
2017-09-21T15:46:51.834Z,7.53
2017-09-21T15:49:27.402Z,8.90
2017-09-21T15:52:02.123Z,9.40
2017-09-21T15:54:37.039Z,9.53
2017-09-21T15:57:12.279Z,8.87
2017-09-21T15:59:47.009Z,10.10
2017-09-21T16:02:22.087Z,8.80
2017-09-21T16:04:56.977Z,8.97
2017-09-21T16:07:31.903Z,9.70
2017-09-21T16:10:06.511Z,8.90
2017-09-21T16:12:41.510Z,8.10
2017-09-21T16:15:16.419Z,10.40
2017-09-21T16:17:51.229Z,8.37
2017-09-21T16:20:25.826Z,9.23
2017-09-21T16:23:00.825Z,8.47
2017-09-21T16:25:35.884Z,7.60
2017-09-21T16:28:10.583Z,8.50
2017-09-21T16:30:45.107Z,9.07
2017-09-21T16:33:19.935Z,9.33
2017-09-21T16:35:54.249Z,9.43
2017-09-21T16:38:28.777Z,9.60
2017-09-21T16:41:03.523Z,9.73
2017-09-21T16:43:38.726Z,9.97
2017-09-21T16:46:14.095Z,9.73
2017-09-21T16:48:48.940Z,9.20
2017-09-21T16:51:23.571Z,9.33
2017-09-21T16:53:58.382Z,9.60
2017-09-21T16:56:33.963Z,9.40
2017-09-21T16:59:09.002Z,8.60
2017-09-21T17:01:44.631Z,9.10
2017-09-21T17:04:19.151Z,9.10
2017-09-21T17:06:54.011Z,11.13
2017-09-21T17:09:28.635Z,10.00
2017-09-21T17:12:03.627Z,11.37
2017-09-21T17:14:38.450Z,12.10
2017-09-21T17:17:12.913Z,10.50
2017-09-21T17:19:48.192Z,10.10
2017-09-21T17:22:22.919Z,10.17
2017-09-21T17:24:57.728Z,11.00
2017-09-21T17:27:32.547Z,9.57
2017-09-21T17:30:07.246Z,8.90
2017-09-21T17:32:41.767Z,9.70
2017-09-21T17:35:16.694Z,8.83
2017-09-21T17:37:51.079Z,7.90
2017-09-21T17:40:26.049Z,8.00
2017-09-21T17:43:00.667Z,8.83
2017-09-21T17:45:35.392Z,10.10
2017-09-21T17:48:10.173Z,10.90
2017-09-21T17:50:44.979Z,12.83
2017-09-21T17:53:19.834Z,13.43
2017-09-21T17:55:54.897Z,13.33
2017-09-21T17:58:29.794Z,12.40
2017-09-21T18:01:04.700Z,12.00
2017-09-21T18:03:39.576Z,12.13
2017-09-21T18:06:14.988Z,12.57
2017-09-21T18:08:49.731Z,14.77
2017-09-21T18:11:24.552Z,13.40
2017-09-21T18:13:59.279Z,13.00
2017-09-21T18:16:34.039Z,13.70
2017-09-21T18:19:08.886Z,14.20
2017-09-21T18:21:43.623Z,14.70
2017-09-21T18:24:18.484Z,14.13
2017-09-21T18:26:53.301Z,15.17
2017-09-21T18:29:28.117Z,13.23
2017-09-21T18:32:03.179Z,12.83
2017-09-21T18:34:38.158Z,13.77
2017-09-21T18:37:13.223Z,14.30
2017-09-21T18:39:48.107Z,14.40
2017-09-21T18:42:23.032Z,26.63
2017-09-21T18:44:57.620Z,18.57
2017-09-21T18:47:32.335Z,20.00
2017-09-21T18:50:07.072Z,19.10
2017-09-21T18:52:41.839Z,16.60
2017-09-21T18:55:16.591Z,17.30
2017-09-21T18:57:51.583Z,15.70
2017-09-21T19:00:26.191Z,17.73
2017-09-21T19:03:01.417Z,18.10
2017-09-21T19:05:35.978Z,17.53
2017-09-21T19:08:10.883Z,16.27
2017-09-21T19:10:45.938Z,16.13
2017-09-21T19:13:20.651Z,17.30
2017-09-21T19:15:55.758Z,16.60
2017-09-21T19:18:30.456Z,16.80
2017-09-21T19:21:05.339Z,17.20
2017-09-21T19:23:40.048Z,17.70
2017-09-21T19:26:14.784Z,18.83
2017-09-21T19:28:49.515Z,17.93
2017-09-21T19:31:24.448Z,18.77
2017-09-21T19:33:59.178Z,15.90
2017-09-21T19:36:34.082Z,15.97
2017-09-21T19:39:08.879Z,18.57
2017-09-21T19:41:57.246Z,18.57
2017-09-21T19:44:32.435Z,16.80
2017-09-21T19:47:07.296Z,17.67
2017-09-21T19:49:42.006Z,16.63
2017-09-21T19:52:16.836Z,17.83
2017-09-21T19:54:51.838Z,17.43
2017-09-21T19:57:26.338Z,18.27
2017-09-21T20:00:01.059Z,15.97
2017-09-21T20:02:35.758Z,17.93
2017-09-21T20:05:10.708Z,17.73
2017-09-21T20:07:45.689Z,18.87
2017-09-21T20:10:20.482Z,18.23
2017-09-21T20:12:56.080Z,18.77
2017-09-21T20:15:30.904Z,18.90
2017-09-21T20:18:05.344Z,20.10
2017-09-21T20:20:40.136Z,18.57
2017-09-21T20:23:14.948Z,21.03
2017-09-21T20:25:49.738Z,20.00
2017-09-21T20:28:24.660Z,19.30
2017-09-21T20:30:59.722Z,19.87
2017-09-21T20:33:34.323Z,18.87
2017-09-21T20:36:09.041Z,19.73
2017-09-21T20:38:43.849Z,19.60
2017-09-21T20:41:18.663Z,19.07
2017-09-21T20:43:53.402Z,19.07
2017-09-21T20:46:28.043Z,19.93
2017-09-21T20:49:02.945Z,19.77
2017-09-21T20:51:37.718Z,19.83
2017-09-21T20:54:12.353Z,20.03
2017-09-21T20:56:46.785Z,21.00
2017-09-21T20:59:21.679Z,19.13
2017-09-21T21:01:56.485Z,21.73
2017-09-21T21:04:31.128Z,21.50
2017-09-21T21:07:05.861Z,20.00
2017-09-21T21:09:40.806Z,22.10
2017-09-21T21:12:15.619Z,21.37
2017-09-21T21:14:49.977Z,21.37
2017-09-21T21:17:24.902Z,21.33
2017-09-21T21:19:59.540Z,22.20
2017-09-21T21:22:34.623Z,21.10
2017-09-21T21:25:09.119Z,21.23
2017-09-21T21:27:43.662Z,22.47
2017-09-21T21:30:28.687Z,21.97
2017-09-21T21:33:03.230Z,21.93
2017-09-21T21:35:37.932Z,22.80
2017-09-21T21:38:12.592Z,21.10
2017-09-21T21:40:48.226Z,22.83
2017-09-21T21:43:23.395Z,22.00
2017-09-21T21:45:58.160Z,22.43
2017-09-21T21:48:32.838Z,23.30
2017-09-21T21:51:07.660Z,20.03
2017-09-21T21:53:42.475Z,23.50
2017-09-21T21:56:17.136Z,21.10
2017-09-21T21:58:51.640Z,22.70
2017-09-21T22:01:26.351Z,22.20
2017-09-21T22:04:01.196Z,21.60
2017-09-21T22:06:35.955Z,22.20
2017-09-21T22:09:10.541Z,21.87
2017-09-21T22:11:45.173Z,23.37
2017-09-21T22:14:19.903Z,23.60
2017-09-21T22:16:54.870Z,21.77
2017-09-21T22:19:29.554Z,24.00
2017-09-21T22:22:04.376Z,24.27
2017-09-21T22:24:38.746Z,24.80
2017-09-21T22:27:13.646Z,23.63
2017-09-21T22:29:48.254Z,23.40
2017-09-21T22:32:22.941Z,22.47
2017-09-21T22:34:57.801Z,21.53
2017-09-21T22:37:32.547Z,23.40
2017-09-21T22:40:07.269Z,24.90
2017-09-21T22:42:41.995Z,25.17
2017-09-21T22:45:16.995Z,22.13
2017-09-21T22:47:52.696Z,22.20
2017-09-21T22:50:27.415Z,22.17
2017-09-21T22:53:02.063Z,23.40
2017-09-21T22:55:36.866Z,21.57
2017-09-21T22:58:11.540Z,22.37
2017-09-21T23:00:46.343Z,21.50
2017-09-21T23:03:21.207Z,22.07
2017-09-21T23:05:56.023Z,21.00
2017-09-21T23:08:30.876Z,22.87
2017-09-21T23:11:05.657Z,23.07
2017-09-21T23:13:40.509Z,23.93
2017-09-21T23:16:15.395Z,23.50
2017-09-21T23:18:51.333Z,22.87
2017-09-21T23:21:26.271Z,24.17
2017-09-21T23:24:01.064Z,24.27
2017-09-21T23:26:35.935Z,23.37
2017-09-21T23:29:10.866Z,21.70
2017-09-21T23:31:46.879Z,22.40
2017-09-21T23:34:21.634Z,21.70
2017-09-21T23:36:56.464Z,22.10
2017-09-21T23:39:31.407Z,23.10
2017-09-21T23:42:06.220Z,21.10
2017-09-21T23:44:40.933Z,21.03
2017-09-21T23:47:15.765Z,22.50
2017-09-21T23:49:50.555Z,21.27
2017-09-21T23:52:25.254Z,22.43
2017-09-21T23:55:00.075Z,21.50
2017-09-21T23:57:34.914Z,21.70
